NCAR-RAP Real-Time Weather Data

Output produced by METARs form (19 September 2014  13:50 UTC)
found at http://weather.rap.ucar.edu/surface/
 
Conditions at: KLOU observed 19 September 2014  12:53 UTC
Temperature: 15.0°C (59°F)
Dewpoint: 8.9°C (48°F) [RH = 67%]
Pressure (altimeter): 30.15 inches Hg (1021.1 mb)
[Sea-level pressure: 1020.6 mb]
Winds: from the ENE (70 degrees) at 8 MPH (7 knots; 3.6 m/s)
Visibility: 10 or more miles (16+ km)
Ceiling: at least 12,000 feet AGL
Clouds: sky clear below 12,000 feet AGL
Present Weather: no significant weather observed at this time
KLOU 191253Z 07007KT 10SM CLR 15/09 A3015 RMK AO2 SLP206 T01500089